This is the latest recevied weather packets stored in our database for station/object YF9UAG-16. If no packets are shown the sender has not sent any weather packets the latest 1 day(s).
| Time | Temp. | Humidity | Pressure | Rain* | Wind** | Luminosity | Snow |
|---|---|---|---|---|---|---|---|
| 1778058181 | 29.44° C | 69% | 1007 hPa | - | - | 0 W/m² | - |
| 1778057859 | 29.44° C | 68% | 1007 hPa | - | - | 0 W/m² | - |
| 1778057215 | 28.89° C | 69% | 1007 hPa | - | - | 0 W/m² | - |
| 1778056893 | 28.89° C | 66% | 1007 hPa | - | - | 0 W/m² | - |
| 1778056572 | 30° C | 67% | 1007 hPa | - | - | 0 W/m² | - |
| 1778056249 | 29.44° C | 67% | 1007 hPa | - | - | 0 W/m² | - |
| 1778054960 | 30° C | 65% | 1006 hPa | - | - | 0 W/m² | - |
| 1778054639 | 30° C | 65% | 1006 hPa | - | - | 0 W/m² | - |
| 1778054319 | 30° C | 63% | 1006 hPa | - | - | 0 W/m² | - |
| 1778053673 | 30° C | 64% | 1006 hPa | - | - | 0 W/m² | - |
| 1778050775 | 31.11° C | 57% | 1005 hPa | - | - | 0 W/m² | - |
| 1778050131 | 32.22° C | 53% | 1005 hPa | - | - | 0 W/m² | - |
| 1778049809 | 31.67° C | 47% | 1005 hPa | - | - | 0 W/m² | - |
| 1778048199 | 36.11° C | 33% | 1005 hPa | - | - | 0 W/m² | - |
| 1778045944 | 38.33° C | 30% | 1005 hPa | - | - | 0 W/m² | - |
| 1778045300 | 39.44° C | 29% | 1005 hPa | - | - | 0 W/m² | - |
| 1778043690 | 37.78° C | 32% | 1006 hPa | - | - | 0 W/m² | - |
| 1778043368 | 37.78° C | 33% | 1006 hPa | - | - | 0 W/m² | - |
| 1778043046 | 36.67° C | 37% | 1006 hPa | - | - | 0 W/m² | - |
| 1778042403 | 35.56° C | 38% | 1006 hPa | - | - | 0 W/m² | - |
| 1778041758 | 35° C | 39% | 1006 hPa | - | - | 0 W/m² | - |
| 1778041436 | 35.56° C | 41% | 1006 hPa | - | - | 0 W/m² | - |
| 1778040792 | 35° C | 44% | 1006 hPa | - | - | 0 W/m² | - |
| 1778040470 | 35° C | 43% | 1006 hPa | - | - | 0 W/m² | - |
| 1778039182 | 31.67° C | 55% | 1007 hPa | - | - | 0 W/m² | - |
* Rain since midnight (hover to see other rain measurements)
** Current wind speed in m/s (hover to see current wind gust speed)